sensor_id;sensor_type;location;lat;lon;timestamp;P1;durP1;ratioP1;P2;durP2;ratioP2
40807;SDS011;26523;52.504;13.498;2022-09-29T00:01:25;5.38;;;2.80;;
40807;SDS011;26523;52.504;13.498;2022-09-29T00:03:51;5.80;;;2.83;;
40807;SDS011;26523;52.504;13.498;2022-09-29T00:06:17;8.82;;;3.25;;
40807;SDS011;26523;52.504;13.498;2022-09-29T00:08:43;6.88;;;3.00;;
40807;SDS011;26523;52.504;13.498;2022-09-29T00:11:10;9.15;;;2.67;;
40807;SDS011;26523;52.504;13.498;2022-09-29T00:13:37;7.18;;;3.22;;
40807;SDS011;26523;52.504;13.498;2022-09-29T00:16:03;6.18;;;2.95;;
40807;SDS011;26523;52.504;13.498;2022-09-29T00:18:29;8.32;;;3.17;;
40807;SDS011;26523;52.504;13.498;2022-09-29T00:21:00;5.50;;;2.58;;
40807;SDS011;26523;52.504;13.498;2022-09-29T00:23:33;6.32;;;2.90;;
40807;SDS011;26523;52.504;13.498;2022-09-29T00:28:30;7.68;;;3.60;;
40807;SDS011;26523;52.504;13.498;2022-09-29T00:30:57;5.32;;;3.03;;
40807;SDS011;26523;52.504;13.498;2022-09-29T00:33:24;7.90;;;3.90;;
40807;SDS011;26523;52.504;13.498;2022-09-29T00:35:59;7.20;;;3.60;;
40807;SDS011;26523;52.504;13.498;2022-09-29T00:38:32;8.57;;;3.75;;
40807;SDS011;26523;52.504;13.498;2022-09-29T00:40:58;8.27;;;3.70;;
40807;SDS011;26523;52.504;13.498;2022-09-29T00:43:48;9.15;;;3.85;;
40807;SDS011;26523;52.504;13.498;2022-09-29T00:49:02;7.78;;;3.83;;
40807;SDS011;26523;52.504;13.498;2022-09-29T00:51:34;7.20;;;3.10;;
40807;SDS011;26523;52.504;13.498;2022-09-29T00:54:03;7.22;;;3.30;;
40807;SDS011;26523;52.504;13.498;2022-09-29T00:56:30;6.43;;;3.33;;
40807;SDS011;26523;52.504;13.498;2022-09-29T00:59:02;7.82;;;3.70;;
40807;SDS011;26523;52.504;13.498;2022-09-29T01:01:31;9.00;;;3.80;;
40807;SDS011;26523;52.504;13.498;2022-09-29T01:04:04;8.93;;;3.63;;
40807;SDS011;26523;52.504;13.498;2022-09-29T01:06:43;7.03;;;3.15;;
40807;SDS011;26523;52.504;13.498;2022-09-29T01:09:18;8.43;;;3.92;;
40807;SDS011;26523;52.504;13.498;2022-09-29T01:11:47;9.50;;;3.80;;
40807;SDS011;26523;52.504;13.498;2022-09-29T01:14:16;7.30;;;3.78;;
40807;SDS011;26523;52.504;13.498;2022-09-29T01:16:43;8.90;;;4.38;;
40807;SDS011;26523;52.504;13.498;2022-09-29T01:19:16;7.00;;;3.50;;
40807;SDS011;26523;52.504;13.498;2022-09-29T01:22:13;12.77;;;4.32;;
40807;SDS011;26523;52.504;13.498;2022-09-29T01:29:55;8.57;;;3.60;;
40807;SDS011;26523;52.504;13.498;2022-09-29T01:32:36;9.05;;;3.92;;
40807;SDS011;26523;52.504;13.498;2022-09-29T01:37:56;10.38;;;3.97;;
40807;SDS011;26523;52.504;13.498;2022-09-29T01:43:03;8.68;;;3.53;;
40807;SDS011;26523;52.504;13.498;2022-09-29T01:45:37;10.68;;;4.45;;
40807;SDS011;26523;52.504;13.498;2022-09-29T01:48:07;8.43;;;3.85;;
40807;SDS011;26523;52.504;13.498;2022-09-29T01:50:38;9.13;;;4.10;;
40807;SDS011;26523;52.504;13.498;2022-09-29T01:53:14;11.05;;;4.43;;
40807;SDS011;26523;52.504;13.498;2022-09-29T01:55:45;11.60;;;4.82;;
40807;SDS011;26523;52.504;13.498;2022-09-29T01:58:17;9.63;;;4.75;;
40807;SDS011;26523;52.504;13.498;2022-09-29T02:00:48;8.98;;;4.07;;
40807;SDS011;26523;52.504;13.498;2022-09-29T02:03:21;9.65;;;4.32;;
40807;SDS011;26523;52.504;13.498;2022-09-29T02:05:54;8.85;;;3.60;;
40807;SDS011;26523;52.504;13.498;2022-09-29T02:08:27;10.82;;;4.30;;
40807;SDS011;26523;52.504;13.498;2022-09-29T02:11:09;10.07;;;4.53;;
40807;SDS011;26523;52.504;13.498;2022-09-29T02:14:11;9.35;;;3.75;;
40807;SDS011;26523;52.504;13.498;2022-09-29T02:16:36;10.90;;;4.45;;
40807;SDS011;26523;52.504;13.498;2022-09-29T02:19:09;9.98;;;4.35;;
40807;SDS011;26523;52.504;13.498;2022-09-29T02:24:08;10.45;;;4.05;;
40807;SDS011;26523;52.504;13.498;2022-09-29T02:26:35;10.55;;;4.38;;
40807;SDS011;26523;52.504;13.498;2022-09-29T02:29:01;9.63;;;4.03;;
40807;SDS011;26523;52.504;13.498;2022-09-29T02:31:28;10.60;;;4.50;;
40807;SDS011;26523;52.504;13.498;2022-09-29T02:33:55;11.55;;;4.70;;
40807;SDS011;26523;52.504;13.498;2022-09-29T02:36:47;10.05;;;4.35;;
40807;SDS011;26523;52.504;13.498;2022-09-29T02:48:11;12.38;;;4.75;;
40807;SDS011;26523;52.504;13.498;2022-09-29T02:59:09;13.40;;;6.05;;
40807;SDS011;26523;52.504;13.498;2022-09-29T03:01:53;16.20;;;5.95;;
40807;SDS011;26523;52.504;13.498;2022-09-29T03:04:21;16.17;;;7.25;;
40807;SDS011;26523;52.504;13.498;2022-09-29T03:06:48;14.18;;;5.82;;
40807;SDS011;26523;52.504;13.498;2022-09-29T03:09:14;13.02;;;5.63;;
40807;SDS011;26523;52.504;13.498;2022-09-29T03:11:40;16.55;;;6.43;;
40807;SDS011;26523;52.504;13.498;2022-09-29T03:14:06;10.88;;;5.05;;
40807;SDS011;26523;52.504;13.498;2022-09-29T03:16:32;15.20;;;6.30;;
40807;SDS011;26523;52.504;13.498;2022-09-29T03:18:58;15.70;;;5.88;;
40807;SDS011;26523;52.504;13.498;2022-09-29T03:21:24;14.82;;;6.13;;
40807;SDS011;26523;52.504;13.498;2022-09-29T03:23:50;13.13;;;5.72;;
40807;SDS011;26523;52.504;13.498;2022-09-29T03:26:15;15.73;;;6.60;;
40807;SDS011;26523;52.504;13.498;2022-09-29T03:28:41;18.80;;;6.35;;
40807;SDS011;26523;52.504;13.498;2022-09-29T03:31:07;13.15;;;6.07;;
40807;SDS011;26523;52.504;13.498;2022-09-29T03:33:36;14.90;;;6.50;;
40807;SDS011;26523;52.504;13.498;2022-09-29T03:36:03;13.60;;;5.80;;
40807;SDS011;26523;52.504;13.498;2022-09-29T03:38:31;12.90;;;5.50;;
40807;SDS011;26523;52.504;13.498;2022-09-29T03:40:57;17.42;;;6.82;;
40807;SDS011;26523;52.504;13.498;2022-09-29T03:43:23;16.05;;;5.65;;
40807;SDS011;26523;52.504;13.498;2022-09-29T03:45:49;13.95;;;6.40;;
40807;SDS011;26523;52.504;13.498;2022-09-29T03:48:16;16.85;;;6.88;;
40807;SDS011;26523;52.504;13.498;2022-09-29T03:50:43;14.32;;;6.53;;
40807;SDS011;26523;52.504;13.498;2022-09-29T03:53:10;12.68;;;5.80;;
40807;SDS011;26523;52.504;13.498;2022-09-29T03:55:36;11.82;;;5.68;;
40807;SDS011;26523;52.504;13.498;2022-09-29T03:58:01;14.55;;;6.43;;
40807;SDS011;26523;52.504;13.498;2022-09-29T04:00:27;21.83;;;6.22;;
40807;SDS011;26523;52.504;13.498;2022-09-29T04:02:53;11.98;;;6.15;;
40807;SDS011;26523;52.504;13.498;2022-09-29T04:05:19;16.42;;;5.95;;
40807;SDS011;26523;52.504;13.498;2022-09-29T04:07:45;15.88;;;6.53;;
40807;SDS011;26523;52.504;13.498;2022-09-29T04:10:10;14.10;;;5.88;;
40807;SDS011;26523;52.504;13.498;2022-09-29T04:12:36;15.60;;;6.00;;
40807;SDS011;26523;52.504;13.498;2022-09-29T04:15:01;12.98;;;6.20;;
40807;SDS011;26523;52.504;13.498;2022-09-29T04:17:27;17.20;;;6.47;;
40807;SDS011;26523;52.504;13.498;2022-09-29T04:19:53;10.70;;;5.90;;
40807;SDS011;26523;52.504;13.498;2022-09-29T04:22:18;14.25;;;6.78;;
40807;SDS011;26523;52.504;13.498;2022-09-29T04:24:44;14.57;;;5.30;;
40807;SDS011;26523;52.504;13.498;2022-09-29T04:27:12;17.35;;;7.30;;
40807;SDS011;26523;52.504;13.498;2022-09-29T04:29:38;14.32;;;6.47;;
40807;SDS011;26523;52.504;13.498;2022-09-29T04:32:03;17.35;;;6.05;;
40807;SDS011;26523;52.504;13.498;2022-09-29T04:34:30;13.98;;;6.40;;
40807;SDS011;26523;52.504;13.498;2022-09-29T04:36:56;14.02;;;6.25;;
40807;SDS011;26523;52.504;13.498;2022-09-29T04:39:22;15.45;;;6.22;;
40807;SDS011;26523;52.504;13.498;2022-09-29T04:41:48;12.68;;;5.88;;
40807;SDS011;26523;52.504;13.498;2022-09-29T04:44:13;13.63;;;5.53;;
40807;SDS011;26523;52.504;13.498;2022-09-29T04:46:39;13.02;;;6.38;;
40807;SDS011;26523;52.504;13.498;2022-09-29T04:49:05;14.02;;;6.15;;
40807;SDS011;26523;52.504;13.498;2022-09-29T04:51:31;16.42;;;6.05;;
40807;SDS011;26523;52.504;13.498;2022-09-29T04:53:57;12.40;;;5.82;;
40807;SDS011;26523;52.504;13.498;2022-09-29T04:56:23;16.30;;;6.75;;
40807;SDS011;26523;52.504;13.498;2022-09-29T04:58:49;14.48;;;6.35;;
40807;SDS011;26523;52.504;13.498;2022-09-29T05:01:14;11.73;;;5.45;;
40807;SDS011;26523;52.504;13.498;2022-09-29T05:03:40;12.50;;;5.85;;
40807;SDS011;26523;52.504;13.498;2022-09-29T05:06:07;9.43;;;5.40;;
40807;SDS011;26523;52.504;13.498;2022-09-29T05:08:34;10.70;;;5.45;;
40807;SDS011;26523;52.504;13.498;2022-09-29T05:11:04;15.50;;;6.80;;
40807;SDS011;26523;52.504;13.498;2022-09-29T05:13:30;10.90;;;5.05;;
40807;SDS011;26523;52.504;13.498;2022-09-29T05:15:56;14.07;;;5.95;;
40807;SDS011;26523;52.504;13.498;2022-09-29T05:18:25;14.50;;;5.93;;
40807;SDS011;26523;52.504;13.498;2022-09-29T05:20:51;13.65;;;6.13;;
40807;SDS011;26523;52.504;13.498;2022-09-29T05:23:17;12.00;;;5.28;;
40807;SDS011;26523;52.504;13.498;2022-09-29T05:25:43;13.85;;;6.03;;
40807;SDS011;26523;52.504;13.498;2022-09-29T05:28:10;15.93;;;5.93;;
40807;SDS011;26523;52.504;13.498;2022-09-29T05:30:36;12.90;;;5.75;;
40807;SDS011;26523;52.504;13.498;2022-09-29T05:33:02;12.13;;;6.05;;
40807;SDS011;26523;52.504;13.498;2022-09-29T05:35:28;14.15;;;6.03;;
40807;SDS011;26523;52.504;13.498;2022-09-29T05:37:54;15.57;;;6.30;;
40807;SDS011;26523;52.504;13.498;2022-09-29T05:40:19;12.55;;;6.00;;
40807;SDS011;26523;52.504;13.498;2022-09-29T05:42:48;15.75;;;5.80;;
40807;SDS011;26523;52.504;13.498;2022-09-29T05:45:13;12.98;;;5.15;;
40807;SDS011;26523;52.504;13.498;2022-09-29T05:47:43;14.15;;;5.43;;
40807;SDS011;26523;52.504;13.498;2022-09-29T05:50:11;15.07;;;6.38;;
40807;SDS011;26523;52.504;13.498;2022-09-29T05:52:38;14.25;;;6.22;;
40807;SDS011;26523;52.504;13.498;2022-09-29T05:55:04;16.58;;;6.00;;
40807;SDS011;26523;52.504;13.498;2022-09-29T05:57:33;15.90;;;5.57;;
40807;SDS011;26523;52.504;13.498;2022-09-29T05:59:59;12.43;;;5.78;;
40807;SDS011;26523;52.504;13.498;2022-09-29T06:02:26;16.58;;;6.25;;
40807;SDS011;26523;52.504;13.498;2022-09-29T06:04:51;15.77;;;5.88;;
40807;SDS011;26523;52.504;13.498;2022-09-29T06:07:17;13.93;;;6.15;;
40807;SDS011;26523;52.504;13.498;2022-09-29T06:09:42;16.45;;;6.68;;
40807;SDS011;26523;52.504;13.498;2022-09-29T06:12:08;14.40;;;6.55;;
40807;SDS011;26523;52.504;13.498;2022-09-29T06:14:34;13.02;;;5.35;;
40807;SDS011;26523;52.504;13.498;2022-09-29T06:16:59;15.85;;;6.38;;
40807;SDS011;26523;52.504;13.498;2022-09-29T06:19:25;13.35;;;5.57;;
40807;SDS011;26523;52.504;13.498;2022-09-29T06:21:50;14.02;;;5.72;;
40807;SDS011;26523;52.504;13.498;2022-09-29T06:24:16;15.57;;;6.07;;
40807;SDS011;26523;52.504;13.498;2022-09-29T06:26:42;15.95;;;5.50;;
40807;SDS011;26523;52.504;13.498;2022-09-29T06:29:07;11.90;;;5.47;;
40807;SDS011;26523;52.504;13.498;2022-09-29T06:31:33;14.50;;;5.85;;
40807;SDS011;26523;52.504;13.498;2022-09-29T06:33:59;11.88;;;6.10;;
40807;SDS011;26523;52.504;13.498;2022-09-29T06:37:00;14.32;;;6.22;;
40807;SDS011;26523;52.504;13.498;2022-09-29T06:39:37;13.38;;;6.00;;
40807;SDS011;26523;52.504;13.498;2022-09-29T06:42:03;12.18;;;5.53;;
40807;SDS011;26523;52.504;13.498;2022-09-29T06:44:29;13.93;;;6.50;;
40807;SDS011;26523;52.504;13.498;2022-09-29T06:46:55;15.75;;;5.75;;
40807;SDS011;26523;52.504;13.498;2022-09-29T06:49:21;12.32;;;5.68;;
40807;SDS011;26523;52.504;13.498;2022-09-29T06:51:48;12.75;;;6.35;;
40807;SDS011;26523;52.504;13.498;2022-09-29T06:54:18;16.77;;;6.32;;
40807;SDS011;26523;52.504;13.498;2022-09-29T06:56:46;13.30;;;6.30;;
40807;SDS011;26523;52.504;13.498;2022-09-29T06:59:12;16.77;;;5.95;;
40807;SDS011;26523;52.504;13.498;2022-09-29T07:01:38;14.27;;;6.10;;
40807;SDS011;26523;52.504;13.498;2022-09-29T07:04:03;14.65;;;6.78;;
40807;SDS011;26523;52.504;13.498;2022-09-29T07:06:29;13.80;;;6.57;;
40807;SDS011;26523;52.504;13.498;2022-09-29T07:08:55;13.25;;;6.25;;
40807;SDS011;26523;52.504;13.498;2022-09-29T07:11:22;15.00;;;6.43;;
40807;SDS011;26523;52.504;13.498;2022-09-29T07:13:48;16.83;;;7.30;;
40807;SDS011;26523;52.504;13.498;2022-09-29T07:16:15;19.50;;;6.32;;
40807;SDS011;26523;52.504;13.498;2022-09-29T07:18:41;16.48;;;6.70;;
40807;SDS011;26523;52.504;13.498;2022-09-29T07:21:08;15.38;;;6.93;;
40807;SDS011;26523;52.504;13.498;2022-09-29T07:23:35;15.57;;;7.25;;
40807;SDS011;26523;52.504;13.498;2022-09-29T07:26:01;18.13;;;8.05;;
40807;SDS011;26523;52.504;13.498;2022-09-29T07:28:28;15.32;;;7.22;;
40807;SDS011;26523;52.504;13.498;2022-09-29T07:30:58;28.75;;;12.20;;
40807;SDS011;26523;52.504;13.498;2022-09-29T07:33:37;21.30;;;9.13;;
40807;SDS011;26523;52.504;13.498;2022-09-29T07:36:03;17.42;;;7.45;;
40807;SDS011;26523;52.504;13.498;2022-09-29T07:38:29;19.10;;;7.75;;
40807;SDS011;26523;52.504;13.498;2022-09-29T07:41:00;15.23;;;7.43;;
40807;SDS011;26523;52.504;13.498;2022-09-29T07:43:26;17.75;;;7.15;;
40807;SDS011;26523;52.504;13.498;2022-09-29T07:45:52;20.88;;;7.60;;
40807;SDS011;26523;52.504;13.498;2022-09-29T07:48:17;17.13;;;7.35;;
40807;SDS011;26523;52.504;13.498;2022-09-29T07:50:43;21.40;;;7.97;;
40807;SDS011;26523;52.504;13.498;2022-09-29T07:53:10;21.35;;;7.82;;
40807;SDS011;26523;52.504;13.498;2022-09-29T07:55:36;19.70;;;7.03;;
40807;SDS011;26523;52.504;13.498;2022-09-29T07:58:02;18.77;;;7.60;;
40807;SDS011;26523;52.504;13.498;2022-09-29T08:00:29;16.73;;;7.13;;
40807;SDS011;26523;52.504;13.498;2022-09-29T08:03:04;23.67;;;7.80;;
40807;SDS011;26523;52.504;13.498;2022-09-29T08:05:33;19.98;;;8.30;;
40807;SDS011;26523;52.504;13.498;2022-09-29T08:08:00;23.52;;;8.13;;
40807;SDS011;26523;52.504;13.498;2022-09-29T08:10:26;21.10;;;8.65;;
40807;SDS011;26523;52.504;13.498;2022-09-29T08:12:53;16.45;;;6.82;;
40807;SDS011;26523;52.504;13.498;2022-09-29T08:15:19;18.60;;;7.50;;
40807;SDS011;26523;52.504;13.498;2022-09-29T08:17:45;18.95;;;7.47;;
40807;SDS011;26523;52.504;13.498;2022-09-29T08:20:12;20.45;;;8.13;;
40807;SDS011;26523;52.504;13.498;2022-09-29T08:22:37;16.88;;;7.85;;
40807;SDS011;26523;52.504;13.498;2022-09-29T08:25:03;23.10;;;7.13;;
40807;SDS011;26523;52.504;13.498;2022-09-29T08:27:29;19.48;;;8.73;;
40807;SDS011;26523;52.504;13.498;2022-09-29T08:29:54;15.35;;;7.35;;
40807;SDS011;26523;52.504;13.498;2022-09-29T08:32:21;14.73;;;7.63;;
40807;SDS011;26523;52.504;13.498;2022-09-29T08:34:47;17.40;;;7.38;;
40807;SDS011;26523;52.504;13.498;2022-09-29T08:37:13;14.85;;;6.95;;
40807;SDS011;26523;52.504;13.498;2022-09-29T08:39:38;16.27;;;7.82;;
40807;SDS011;26523;52.504;13.498;2022-09-29T08:42:05;14.45;;;6.95;;
40807;SDS011;26523;52.504;13.498;2022-09-29T08:44:43;23.52;;;8.40;;
40807;SDS011;26523;52.504;13.498;2022-09-29T08:49:56;14.18;;;6.93;;
40807;SDS011;26523;52.504;13.498;2022-09-29T08:52:37;15.93;;;7.47;;
40807;SDS011;26523;52.504;13.498;2022-09-29T08:57:46;14.07;;;7.30;;
40807;SDS011;26523;52.504;13.498;2022-09-29T09:00:19;17.02;;;7.43;;
40807;SDS011;26523;52.504;13.498;2022-09-29T09:02:57;16.15;;;6.70;;
40807;SDS011;26523;52.504;13.498;2022-09-29T09:08:44;14.38;;;6.60;;
40807;SDS011;26523;52.504;13.498;2022-09-29T09:11:24;15.77;;;6.93;;
40807;SDS011;26523;52.504;13.498;2022-09-29T09:16:42;14.50;;;6.63;;
40807;SDS011;26523;52.504;13.498;2022-09-29T09:22:05;17.45;;;6.72;;
40807;SDS011;26523;52.504;13.498;2022-09-29T09:27:45;14.57;;;6.63;;
40807;SDS011;26523;52.504;13.498;2022-09-29T09:30:17;17.55;;;7.40;;
40807;SDS011;26523;52.504;13.498;2022-09-29T09:32:46;15.60;;;6.80;;
40807;SDS011;26523;52.504;13.498;2022-09-29T09:35:20;15.23;;;7.32;;
40807;SDS011;26523;52.504;13.498;2022-09-29T09:37:57;14.48;;;6.25;;
40807;SDS011;26523;52.504;13.498;2022-09-29T09:40:30;15.05;;;6.88;;
40807;SDS011;26523;52.504;13.498;2022-09-29T09:43:06;13.60;;;6.30;;
40807;SDS011;26523;52.504;13.498;2022-09-29T09:45:56;12.40;;;5.97;;
40807;SDS011;26523;52.504;13.498;2022-09-29T09:48:35;17.27;;;7.78;;
40807;SDS011;26523;52.504;13.498;2022-09-29T09:53:45;11.65;;;6.47;;
40807;SDS011;26523;52.504;13.498;2022-09-29T09:56:23;12.43;;;5.88;;
40807;SDS011;26523;52.504;13.498;2022-09-29T10:04:03;12.25;;;6.28;;
40807;SDS011;26523;52.504;13.498;2022-09-29T10:06:29;12.13;;;5.82;;
40807;SDS011;26523;52.504;13.498;2022-09-29T10:08:55;14.88;;;6.60;;
40807;SDS011;26523;52.504;13.498;2022-09-29T10:11:22;14.43;;;6.32;;
40807;SDS011;26523;52.504;13.498;2022-09-29T10:14:01;15.93;;;6.10;;
40807;SDS011;26523;52.504;13.498;2022-09-29T10:19:10;13.10;;;6.10;;
40807;SDS011;26523;52.504;13.498;2022-09-29T10:21:37;11.95;;;6.45;;
40807;SDS011;26523;52.504;13.498;2022-09-29T10:26:53;10.80;;;5.78;;
40807;SDS011;26523;52.504;13.498;2022-09-29T10:29:35;10.15;;;5.43;;
40807;SDS011;26523;52.504;13.498;2022-09-29T10:34:37;13.32;;;5.30;;
40807;SDS011;26523;52.504;13.498;2022-09-29T10:37:17;11.00;;;5.75;;
40807;SDS011;26523;52.504;13.498;2022-09-29T10:39:47;10.20;;;5.50;;
40807;SDS011;26523;52.504;13.498;2022-09-29T10:42:22;8.40;;;4.90;;
40807;SDS011;26523;52.504;13.498;2022-09-29T10:48:07;10.57;;;5.43;;
40807;SDS011;26523;52.504;13.498;2022-09-29T10:50:47;10.35;;;5.15;;
40807;SDS011;26523;52.504;13.498;2022-09-29T10:53:20;14.68;;;5.07;;
40807;SDS011;26523;52.504;13.498;2022-09-29T10:56:19;11.88;;;5.45;;
40807;SDS011;26523;52.504;13.498;2022-09-29T11:01:18;8.65;;;4.35;;
40807;SDS011;26523;52.504;13.498;2022-09-29T11:06:32;22.00;;;5.85;;
40807;SDS011;26523;52.504;13.498;2022-09-29T11:09:00;10.32;;;4.80;;
40807;SDS011;26523;52.504;13.498;2022-09-29T11:11:30;8.82;;;4.15;;
40807;SDS011;26523;52.504;13.498;2022-09-29T11:14:00;8.93;;;4.68;;
40807;SDS011;26523;52.504;13.498;2022-09-29T11:18:51;8.77;;;4.05;;
40807;SDS011;26523;52.504;13.498;2022-09-29T11:23:59;8.43;;;4.28;;
40807;SDS011;26523;52.504;13.498;2022-09-29T11:27:03;8.88;;;4.45;;
40807;SDS011;26523;52.504;13.498;2022-09-29T11:35:05;10.40;;;3.70;;
40807;SDS011;26523;52.504;13.498;2022-09-29T11:49:42;6.80;;;3.50;;
40807;SDS011;26523;52.504;13.498;2022-09-29T11:57:57;8.10;;;3.83;;
40807;SDS011;26523;52.504;13.498;2022-09-29T12:01:04;7.10;;;3.58;;
40807;SDS011;26523;52.504;13.498;2022-09-29T12:12:58;5.60;;;2.55;;
40807;SDS011;26523;52.504;13.498;2022-09-29T12:15:37;5.70;;;3.15;;
40807;SDS011;26523;52.504;13.498;2022-09-29T12:18:13;9.30;;;3.40;;
40807;SDS011;26523;52.504;13.498;2022-09-29T12:20:44;5.82;;;3.13;;
40807;SDS011;26523;52.504;13.498;2022-09-29T12:23:13;7.22;;;3.15;;
40807;SDS011;26523;52.504;13.498;2022-09-29T12:25:47;7.75;;;3.65;;
40807;SDS011;26523;52.504;13.498;2022-09-29T12:28:18;8.15;;;3.40;;
40807;SDS011;26523;52.504;13.498;2022-09-29T12:31:02;9.45;;;3.78;;
40807;SDS011;26523;52.504;13.498;2022-09-29T12:33:35;8.23;;;4.07;;
40807;SDS011;26523;52.504;13.498;2022-09-29T12:41:50;8.07;;;3.42;;
40807;SDS011;26523;52.504;13.498;2022-09-29T12:44:28;6.47;;;2.92;;
40807;SDS011;26523;52.504;13.498;2022-09-29T12:47:03;7.82;;;3.40;;
40807;SDS011;26523;52.504;13.498;2022-09-29T12:52:40;6.03;;;2.58;;
40807;SDS011;26523;52.504;13.498;2022-09-29T12:55:17;6.93;;;3.13;;
40807;SDS011;26523;52.504;13.498;2022-09-29T12:57:49;4.97;;;2.50;;
40807;SDS011;26523;52.504;13.498;2022-09-29T13:00:19;7.35;;;2.95;;
40807;SDS011;26523;52.504;13.498;2022-09-29T13:05:23;6.95;;;3.50;;
40807;SDS011;26523;52.504;13.498;2022-09-29T13:19:32;5.45;;;2.60;;
40807;SDS011;26523;52.504;13.498;2022-09-29T13:27:56;4.82;;;2.25;;
40807;SDS011;26523;52.504;13.498;2022-09-29T13:33:00;3.85;;;2.08;;
40807;SDS011;26523;52.504;13.498;2022-09-29T13:35:36;5.43;;;2.40;;
40807;SDS011;26523;52.504;13.498;2022-09-29T13:38:18;5.18;;;2.40;;
40807;SDS011;26523;52.504;13.498;2022-09-29T13:41:07;3.90;;;2.38;;
40807;SDS011;26523;52.504;13.498;2022-09-29T13:54:22;4.00;;;1.95;;
40807;SDS011;26523;52.504;13.498;2022-09-29T13:56:50;4.75;;;2.00;;
40807;SDS011;26523;52.504;13.498;2022-09-29T13:59:25;3.70;;;1.60;;
40807;SDS011;26523;52.504;13.498;2022-09-29T14:01:55;5.45;;;1.40;;
40807;SDS011;26523;52.504;13.498;2022-09-29T14:07:00;2.75;;;1.38;;
40807;SDS011;26523;52.504;13.498;2022-09-29T14:09:32;3.03;;;1.55;;
40807;SDS011;26523;52.504;13.498;2022-09-29T14:12:03;3.35;;;1.33;;
40807;SDS011;26523;52.504;13.498;2022-09-29T14:14:33;3.17;;;1.48;;
40807;SDS011;26523;52.504;13.498;2022-09-29T14:17:04;4.10;;;1.77;;
40807;SDS011;26523;52.504;13.498;2022-09-29T14:19:42;3.38;;;1.58;;
40807;SDS011;26523;52.504;13.498;2022-09-29T14:24:54;1.60;;;0.85;;
40807;SDS011;26523;52.504;13.498;2022-09-29T14:32:58;2.10;;;1.00;;
40807;SDS011;26523;52.504;13.498;2022-09-29T14:38:30;5.70;;;2.33;;
40807;SDS011;26523;52.504;13.498;2022-09-29T14:41:03;2.85;;;1.65;;
40807;SDS011;26523;52.504;13.498;2022-09-29T14:43:45;3.90;;;1.48;;
40807;SDS011;26523;52.504;13.498;2022-09-29T14:57:44;2.95;;;1.50;;
40807;SDS011;26523;52.504;13.498;2022-09-29T15:00:16;6.13;;;1.02;;
40807;SDS011;26523;52.504;13.498;2022-09-29T15:02:45;2.38;;;1.50;;
40807;SDS011;26523;52.504;13.498;2022-09-29T15:05:27;2.45;;;1.30;;
40807;SDS011;26523;52.504;13.498;2022-09-29T15:07:55;1.92;;;1.10;;
40807;SDS011;26523;52.504;13.498;2022-09-29T15:12:49;2.70;;;1.35;;
40807;SDS011;26523;52.504;13.498;2022-09-29T15:15:32;2.40;;;1.15;;
40807;SDS011;26523;52.504;13.498;2022-09-29T15:18:07;4.35;;;1.60;;
40807;SDS011;26523;52.504;13.498;2022-09-29T15:23:25;2.95;;;1.20;;
40807;SDS011;26523;52.504;13.498;2022-09-29T15:25:59;3.95;;;1.67;;
40807;SDS011;26523;52.504;13.498;2022-09-29T15:28:32;2.97;;;1.30;;
40807;SDS011;26523;52.504;13.498;2022-09-29T15:31:02;7.40;;;2.67;;
40807;SDS011;26523;52.504;13.498;2022-09-29T15:33:35;17.65;;;4.38;;
40807;SDS011;26523;52.504;13.498;2022-09-29T15:36:04;6.97;;;2.63;;
40807;SDS011;26523;52.504;13.498;2022-09-29T15:38:36;4.07;;;1.85;;
40807;SDS011;26523;52.504;13.498;2022-09-29T15:41:14;2.78;;;1.30;;
40807;SDS011;26523;52.504;13.498;2022-09-29T15:44:07;3.17;;;1.48;;
40807;SDS011;26523;52.504;13.498;2022-09-29T15:46:39;2.17;;;1.25;;
40807;SDS011;26523;52.504;13.498;2022-09-29T15:49:16;4.53;;;1.58;;
40807;SDS011;26523;52.504;13.498;2022-09-29T15:51:59;8.30;;;3.20;;
40807;SDS011;26523;52.504;13.498;2022-09-29T15:54:28;2.67;;;1.50;;
40807;SDS011;26523;52.504;13.498;2022-09-29T15:56:58;2.92;;;1.42;;
40807;SDS011;26523;52.504;13.498;2022-09-29T15:59:53;3.00;;;1.58;;
40807;SDS011;26523;52.504;13.498;2022-09-29T16:02:40;2.47;;;1.50;;
40807;SDS011;26523;52.504;13.498;2022-09-29T16:05:10;4.55;;;2.00;;
40807;SDS011;26523;52.504;13.498;2022-09-29T16:07:40;4.30;;;1.95;;
40807;SDS011;26523;52.504;13.498;2022-09-29T16:10:13;6.10;;;2.67;;
40807;SDS011;26523;52.504;13.498;2022-09-29T16:13:24;5.20;;;2.05;;
40807;SDS011;26523;52.504;13.498;2022-09-29T16:15:34;4.32;;;2.03;;
40807;SDS011;26523;52.504;13.498;2022-09-29T16:18:05;4.20;;;1.92;;
40807;SDS011;26523;52.504;13.498;2022-09-29T16:20:34;5.82;;;2.50;;
40807;SDS011;26523;52.504;13.498;2022-09-29T16:23:07;4.47;;;1.83;;
40807;SDS011;26523;52.504;13.498;2022-09-29T16:25:42;4.60;;;1.90;;
40807;SDS011;26523;52.504;13.498;2022-09-29T16:28:24;3.45;;;1.40;;
40807;SDS011;26523;52.504;13.498;2022-09-29T16:31:01;3.60;;;1.95;;
40807;SDS011;26523;52.504;13.498;2022-09-29T16:33:51;4.63;;;2.13;;
40807;SDS011;26523;52.504;13.498;2022-09-29T16:36:22;4.60;;;2.10;;
40807;SDS011;26523;52.504;13.498;2022-09-29T16:38:53;6.15;;;2.08;;
40807;SDS011;26523;52.504;13.498;2022-09-29T16:41:26;3.95;;;1.88;;
40807;SDS011;26523;52.504;13.498;2022-09-29T16:44:21;4.18;;;2.15;;
40807;SDS011;26523;52.504;13.498;2022-09-29T16:49:52;4.20;;;2.08;;
40807;SDS011;26523;52.504;13.498;2022-09-29T16:52:32;3.90;;;1.90;;
40807;SDS011;26523;52.504;13.498;2022-09-29T16:57:49;6.13;;;2.13;;
40807;SDS011;26523;52.504;13.498;2022-09-29T17:00:18;4.90;;;2.30;;
40807;SDS011;26523;52.504;13.498;2022-09-29T17:02:44;4.55;;;2.13;;
40807;SDS011;26523;52.504;13.498;2022-09-29T17:05:09;5.68;;;2.70;;
40807;SDS011;26523;52.504;13.498;2022-09-29T17:07:38;8.70;;;2.90;;
40807;SDS011;26523;52.504;13.498;2022-09-29T17:10:11;5.10;;;2.70;;
40807;SDS011;26523;52.504;13.498;2022-09-29T17:12:41;10.63;;;3.28;;
40807;SDS011;26523;52.504;13.498;2022-09-29T17:15:10;4.82;;;2.75;;
40807;SDS011;26523;52.504;13.498;2022-09-29T17:20:10;5.78;;;2.50;;
40807;SDS011;26523;52.504;13.498;2022-09-29T17:22:38;5.85;;;2.40;;
40807;SDS011;26523;52.504;13.498;2022-09-29T17:25:04;7.05;;;2.95;;
40807;SDS011;26523;52.504;13.498;2022-09-29T17:27:31;7.55;;;3.42;;
40807;SDS011;26523;52.504;13.498;2022-09-29T17:30:16;8.75;;;3.65;;
40807;SDS011;26523;52.504;13.498;2022-09-29T17:32:46;7.45;;;3.55;;
40807;SDS011;26523;52.504;13.498;2022-09-29T17:35:13;6.88;;;2.90;;
40807;SDS011;26523;52.504;13.498;2022-09-29T17:37:40;4.22;;;2.40;;
40807;SDS011;26523;52.504;13.498;2022-09-29T17:42:57;9.50;;;3.60;;
40807;SDS011;26523;52.504;13.498;2022-09-29T17:45:24;7.13;;;3.80;;
40807;SDS011;26523;52.504;13.498;2022-09-29T17:47:51;7.25;;;4.03;;
40807;SDS011;26523;52.504;13.498;2022-09-29T17:50:24;4.35;;;2.72;;
40807;SDS011;26523;52.504;13.498;2022-09-29T17:52:53;5.80;;;2.47;;
40807;SDS011;26523;52.504;13.498;2022-09-29T17:55:19;11.90;;;4.40;;
40807;SDS011;26523;52.504;13.498;2022-09-29T17:57:47;11.75;;;4.03;;
40807;SDS011;26523;52.504;13.498;2022-09-29T18:00:24;7.32;;;3.33;;
40807;SDS011;26523;52.504;13.498;2022-09-29T18:03:06;9.13;;;3.63;;
40807;SDS011;26523;52.504;13.498;2022-09-29T18:05:37;10.60;;;5.65;;